Chappell Hill, TX (77426)

9:31 PM CDT on August 22, 2014 (GMT -0500)
Piney Creek | Change Station
CLOSE
Current Station
Personal Weather Station
Location: Bellville, TX
Elevation: 336 ft
Nearby Weather Stations

Elev 336 ft 30.01 °N, 96.28 °W | Updated 28 minutes ago

Clear
Clear
87.8 °F
Feels Like 94 °F
N
0.0
Wind Variable Wind from ENE
Gusts 1.0 mph

Today
High -- | Low -- °F
--% Chance of Precip.
Yesterday
High -- | Low -- °F
Precip. -- in
6:56 AM 7:58 PM
Waning Crescent, 6% visible
Pressure 30.01 in
Visibility 10.0 miles
Clouds Clear
Heat Index 94 °F
Dew Point 71 °F
Humidity 58%
Rainfall 0.00 in
Snow Depth Not available.
UV 0 out of 12
Pollen 5.90 out of 12
Air Quality Not available.
Flu Activity Not available.
METAR K11R 230215Z AUTO 16010G14KT 10SM CLR 32/22 A3001 RMK AO2 T03210215

More Conditions Fewer Conditions

Pressure 30.01 in
Visibility 10.0 miles
Clouds Clear
Heat Index 94 °F
Dew Point 71 °F
Humidity 58%
Rainfall 0.00 in
Snow Depth Not available.
UV 0 out of 12
Pollen 5.90 out of 12
Air Quality Not available.
Flu Activity Not available.
METAR K11R 230215Z AUTO 16010G14KT 10SM CLR 32/22 A3001 RMK AO2 T03210215

More Conditions Fewer Conditions

10-Day Weather Forecast

Almanac

Astronomy

Aug. 22, 2014 Rise Set
Actual Time 6:56 AM CDT 7:58 PM CDT
Civil Twilight 6:31 AM CDT 8:23 PM CDT
Nautical Twilight 6:02 AM CDT 8:52 PM CDT
Astronomical Twilight 5:31 AM CDT 9:22 PM CDT
Moon 4:25 AM CDT (8/22) 6:03 PM CDT (8/22)
Length of Visible Light 13h 51m
Length of Day
13h 02m
Tomorrow will be 1m 39s shorter.
Waning Crescent, 6% of the Moon is Illuminated
Today
Waning Crescent
Aug 25
New
Sep 2
First Quarter
Sep 8
Full
Sep 15
Last Quarter

Today's Extremes

State Highs State Lows

Community

WunderPhotos

Upload Photos

1,746,346 photos uploaded!

WunderBlogs® & News

Nearby

Snow Depth

Station Depth Elevation
No new snow has been reported.

Earthquake Activity

City Distance Mag. Time & Date
No recent earthquake activity has been reported nearby.
Minimum magnitude displayed is 2.5.

Coastal Water Temperatures

Place Temperature
No Stations Reporting

Nearby Weather Stations